createdAt,value
2023-05-13T00:00:35.311Z,1005.5
2023-05-13T00:01:51.612Z,1005.4
2023-05-13T00:03:07.904Z,1005.4
2023-05-13T00:04:23.217Z,1005.5
2023-05-13T00:05:39.502Z,1005.4
2023-05-13T00:06:55.808Z,1005.5
2023-05-13T00:08:12.094Z,1005.4
2023-05-13T00:09:28.391Z,1005.4
2023-05-13T00:10:44.671Z,1005.5
2023-05-13T00:12:00.966Z,1005.5
2023-05-13T00:13:17.266Z,1005.5
2023-05-13T00:14:33.566Z,1005.5
2023-05-13T00:15:49.850Z,1005.6
2023-05-13T00:17:06.138Z,1005.6
2023-05-13T00:18:22.438Z,1005.6
2023-05-13T00:19:38.730Z,1005.6
2023-05-13T00:20:54.050Z,1005.6
2023-05-13T00:22:10.337Z,1005.6
2023-05-13T00:23:26.640Z,1005.6
2023-05-13T00:24:42.922Z,1005.6
2023-05-13T00:25:59.229Z,1005.7
2023-05-13T00:27:15.518Z,1005.6
2023-05-13T00:28:31.811Z,1005.7
2023-05-13T00:29:48.108Z,1005.6
2023-05-13T00:31:04.391Z,1005.5
2023-05-13T00:32:20.688Z,1005.5
2023-05-13T00:33:36.981Z,1005.5
2023-05-13T00:34:53.271Z,1005.6
2023-05-13T00:36:09.579Z,1005.6
2023-05-13T00:37:24.883Z,1005.6
2023-05-13T00:38:41.178Z,1005.7
2023-05-13T00:39:57.466Z,1005.7
2023-05-13T00:41:13.756Z,1005.7
2023-05-13T00:42:30.054Z,1005.7
2023-05-13T00:43:46.347Z,1005.6
2023-05-13T00:45:01.662Z,1005.6
2023-05-13T00:46:17.957Z,1005.6
2023-05-13T00:47:34.259Z,1005.5
2023-05-13T00:48:50.558Z,1005.6
2023-05-13T00:50:06.845Z,1005.6
2023-05-13T00:51:23.132Z,1005.6
2023-05-13T00:52:39.439Z,1005.6
2023-05-13T00:53:55.719Z,1005.6
2023-05-13T00:55:12.027Z,1005.5
2023-05-13T00:56:28.308Z,1005.6
2023-05-13T00:57:44.608Z,1005.6
2023-05-13T00:59:00.899Z,1005.6
2023-05-13T01:00:17.202Z,1005.6
2023-05-13T01:01:32.509Z,1005.6
2023-05-13T01:02:48.803Z,1005.6
2023-05-13T01:04:05.084Z,1005.6
2023-05-13T01:05:21.389Z,1005.7
2023-05-13T01:06:37.671Z,1005.5
2023-05-13T01:07:53.962Z,1005.5
2023-05-13T01:09:10.254Z,1005.5
2023-05-13T01:10:26.559Z,1005.5
2023-05-13T01:11:42.843Z,1005.5
2023-05-13T01:12:59.143Z,1005.5
2023-05-13T01:14:15.445Z,1005.4
2023-05-13T01:15:31.744Z,1005.5
2023-05-13T01:16:48.028Z,1005.6
2023-05-13T01:18:03.336Z,1005.7
2023-05-13T01:19:19.633Z,1005.5
2023-05-13T01:20:35.928Z,1005.6
2023-05-13T01:21:52.217Z,1005.6
2023-05-13T01:24:24.811Z,1005.6
2023-05-13T01:25:41.105Z,1005.6
2023-05-13T01:26:57.404Z,1005.6
2023-05-13T01:28:13.690Z,1005.6
2023-05-13T01:29:29.992Z,1005.6
2023-05-13T01:30:46.269Z,1005.7
2023-05-13T01:32:02.572Z,1005.7
2023-05-13T01:33:18.856Z,1005.7
2023-05-13T01:34:34.167Z,1005.8
2023-05-13T01:35:50.462Z,1005.7
2023-05-13T01:37:06.752Z,1005.7
2023-05-13T01:38:23.047Z,1005.7
2023-05-13T01:39:39.343Z,1005.7
2023-05-13T01:40:55.634Z,1005.7
2023-05-13T01:42:11.925Z,1005.8
2023-05-13T01:43:28.236Z,1005.7
2023-05-13T01:44:44.523Z,1005.7
2023-05-13T01:46:00.817Z,1005.8
2023-05-13T01:47:17.118Z,1005.8
2023-05-13T01:48:33.413Z,1005.7
2023-05-13T01:49:49.701Z,1005.8
2023-05-13T01:51:05.015Z,1005.7
2023-05-13T01:52:21.299Z,1005.8
2023-05-13T01:53:37.585Z,1005.8
2023-05-13T01:54:53.885Z,1005.9
2023-05-13T01:56:10.173Z,1005.9
2023-05-13T01:57:26.482Z,1005.8
2023-05-13T01:58:42.771Z,1005.8
2023-05-13T01:59:59.068Z,1005.8
2023-05-13T02:01:15.351Z,1005.8
2023-05-13T02:02:31.659Z,1005.8
2023-05-13T02:03:47.955Z,1005.8
2023-05-13T02:05:04.242Z,1005.8
2023-05-13T02:06:20.530Z,1005.9
2023-05-13T02:07:35.853Z,1005.9
2023-05-13T02:08:52.136Z,1005.8
2023-05-13T02:10:08.425Z,1005.9
2023-05-13T02:11:24.731Z,1005.9
2023-05-13T02:12:41.009Z,1005.9
2023-05-13T02:13:57.307Z,1005.8
2023-05-13T02:15:13.597Z,1005.8
2023-05-13T02:16:29.902Z,1005.8
2023-05-13T02:17:46.204Z,1005.8
2023-05-13T02:19:02.479Z,1005.8
2023-05-13T02:20:18.783Z,1005.8
2023-05-13T02:21:35.068Z,1005.8
2023-05-13T02:22:51.371Z,1005.8
2023-05-13T02:24:06.684Z,1005.8
2023-05-13T02:25:22.964Z,1005.8
2023-05-13T02:26:39.275Z,1005.8
2023-05-13T02:29:11.856Z,1005.8
2023-05-13T02:30:28.142Z,1005.8
2023-05-13T02:31:44.449Z,1005.8
2023-05-13T02:33:00.739Z,1005.8
2023-05-13T02:34:17.034Z,1005.8
2023-05-13T02:35:33.329Z,1005.8
2023-05-13T02:36:49.615Z,1005.8
2023-05-13T02:38:05.918Z,1005.8
2023-05-13T02:39:22.212Z,1005.7
2023-05-13T02:40:37.516Z,1005.8
2023-05-13T02:41:53.808Z,1005.7
2023-05-13T02:43:10.043Z,1005.8
2023-05-13T02:44:26.345Z,1005.7
2023-05-13T02:45:42.630Z,1005.7
2023-05-13T02:46:58.940Z,1005.7
2023-05-13T02:48:15.189Z,1005.7
2023-05-13T02:49:31.418Z,1005.7
2023-05-13T02:50:47.727Z,1005.7
2023-05-13T02:52:04.015Z,1005.7
2023-05-13T02:53:20.308Z,1005.7
2023-05-13T02:54:36.555Z,1005.7
2023-05-13T02:55:52.853Z,1005.7
2023-05-13T02:57:08.110Z,1005.7
2023-05-13T02:58:24.353Z,1005.7
2023-05-13T02:59:40.607Z,1005.7
2023-05-13T03:00:56.834Z,1005.7
2023-05-13T03:02:13.075Z,1005.7
2023-05-13T03:03:29.327Z,1005.7
2023-05-13T03:04:45.548Z,1005.7
2023-05-13T03:06:01.809Z,1005.7
2023-05-13T03:07:18.041Z,1005.7
2023-05-13T03:08:34.281Z,1005.7
2023-05-13T03:09:50.510Z,1005.7
2023-05-13T03:11:06.751Z,1005.8
2023-05-13T03:12:22.987Z,1005.8
2023-05-13T03:13:38.253Z,1005.8
2023-05-13T03:14:54.485Z,1005.8
2023-05-13T03:16:10.739Z,1005.8
2023-05-13T03:17:26.983Z,1005.8
2023-05-13T03:18:43.212Z,1005.8
2023-05-13T03:19:59.462Z,1005.8
2023-05-13T03:21:15.687Z,1005.8
2023-05-13T03:22:31.933Z,1005.8
2023-05-13T03:23:48.172Z,1005.8
2023-05-13T03:25:04.419Z,1005.8
2023-05-13T03:26:20.654Z,1005.9
2023-05-13T03:28:53.139Z,1005.9
2023-05-13T03:30:08.395Z,1005.9
2023-05-13T03:31:24.627Z,1005.9
2023-05-13T03:32:40.866Z,1005.9
2023-05-13T03:33:57.126Z,1005.9
2023-05-13T03:35:13.340Z,1005.9
2023-05-13T03:36:29.594Z,1005.9
2023-05-13T03:37:45.821Z,1005.9
2023-05-13T03:39:02.062Z,1005.9
2023-05-13T03:40:18.325Z,1005.9
2023-05-13T03:41:34.547Z,1005.9
2023-05-13T03:42:50.800Z,1005.9
2023-05-13T03:44:07.040Z,1005.9
2023-05-13T03:45:23.263Z,1005.9
2023-05-13T03:46:38.515Z,1006
2023-05-13T03:47:54.755Z,1005.9
2023-05-13T03:49:11.005Z,1006
2023-05-13T03:50:27.254Z,1006
2023-05-13T03:51:43.476Z,1006
2023-05-13T03:52:59.720Z,1005.9
2023-05-13T03:54:15.955Z,1006
2023-05-13T03:55:32.206Z,1006
2023-05-13T03:56:48.448Z,1005.9
2023-05-13T03:58:04.678Z,1006
2023-05-13T03:59:20.917Z,1006
2023-05-13T04:00:37.166Z,1005.9
2023-05-13T04:01:53.401Z,1006
2023-05-13T04:03:08.664Z,1006
2023-05-13T04:04:24.894Z,1006
2023-05-13T04:05:41.137Z,1006
2023-05-13T04:06:57.373Z,1006
2023-05-13T04:08:13.610Z,1006
2023-05-13T04:09:29.849Z,1006
2023-05-13T04:10:46.092Z,1006
2023-05-13T04:12:02.341Z,1006
2023-05-13T04:13:18.579Z,1006
2023-05-13T04:14:34.828Z,1006
2023-05-13T04:15:51.062Z,1006
2023-05-13T04:17:07.297Z,1006
2023-05-13T04:18:23.528Z,1006
2023-05-13T04:19:38.801Z,1006
2023-05-13T04:20:55.030Z,1006
2023-05-13T04:22:11.266Z,1006
2023-05-13T04:23:27.516Z,1006
2023-05-13T04:24:43.760Z,1006.1
2023-05-13T04:25:59.985Z,1006.1
2023-05-13T04:27:16.236Z,1006.1
2023-05-13T04:28:32.483Z,1006.1
2023-05-13T04:29:48.719Z,1006.1
2023-05-13T04:31:04.946Z,1006.1
2023-05-13T04:32:21.193Z,1006.2
2023-05-13T04:33:37.428Z,1006.2
2023-05-13T04:34:53.680Z,1006.2
2023-05-13T04:36:08.925Z,1006.2
2023-05-13T04:37:25.000Z,1006.2
2023-05-13T04:38:41.410Z,1006.2
2023-05-13T04:39:57.639Z,1006.1
2023-05-13T04:41:13.896Z,1006.2
2023-05-13T04:42:30.122Z,1006.2
2023-05-13T04:43:46.376Z,1006.2
2023-05-13T04:45:02.609Z,1006.2
2023-05-13T04:46:18.851Z,1006.2
2023-05-13T04:47:35.082Z,1006.3
2023-05-13T04:48:51.329Z,1006.2
2023-05-13T04:50:07.563Z,1006.2
2023-05-13T04:51:23.812Z,1006.2
2023-05-13T04:52:39.058Z,1006.2
2023-05-13T04:53:55.299Z,1006.2
2023-05-13T04:55:11.545Z,1006.3
2023-05-13T04:56:27.776Z,1006.2
2023-05-13T04:57:44.020Z,1006.2
2023-05-13T04:59:00.258Z,1006.3
2023-05-13T05:01:31.754Z,1006.4
2023-05-13T05:02:47.033Z,1006.4
2023-05-13T05:04:03.269Z,1006.3
2023-05-13T05:05:19.499Z,1006.4
2023-05-13T05:06:35.746Z,1006.4
2023-05-13T05:07:51.993Z,1006.3
2023-05-13T05:09:08.241Z,1006.4
2023-05-13T05:10:24.455Z,1006.4
2023-05-13T05:11:40.707Z,1006.4
2023-05-13T05:12:56.947Z,1006.4
2023-05-13T05:14:13.198Z,1006.4
2023-05-13T05:15:29.417Z,1006.4
2023-05-13T05:16:45.670Z,1006.5
2023-05-13T05:18:01.893Z,1006.5
2023-05-13T05:19:17.160Z,1006.4
2023-05-13T05:20:33.399Z,1006.5
2023-05-13T05:21:49.644Z,1006.4
2023-05-13T05:23:05.882Z,1006.4
2023-05-13T05:24:22.118Z,1006.4
2023-05-13T05:25:38.354Z,1006.5
2023-05-13T05:26:54.602Z,1006.5
2023-05-13T05:28:10.850Z,1006.5
2023-05-13T05:29:27.070Z,1006.5
2023-05-13T05:30:43.316Z,1006.6
2023-05-13T05:31:59.561Z,1006.6
2023-05-13T05:33:15.799Z,1006.5
2023-05-13T05:34:32.042Z,1006.5
2023-05-13T05:35:47.310Z,1006.6
2023-05-13T05:37:03.537Z,1006.6
2023-05-13T05:38:19.772Z,1006.6
2023-05-13T05:39:36.028Z,1006.6
2023-05-13T05:40:52.249Z,1006.6
2023-05-13T05:42:08.500Z,1006.6
2023-05-13T05:43:24.740Z,1006.6
2023-05-13T05:44:40.973Z,1006.6
2023-05-13T05:45:57.212Z,1006.6
2023-05-13T05:47:13.448Z,1006.6
2023-05-13T05:48:29.688Z,1006.6
2023-05-13T05:49:45.932Z,1006.6
2023-05-13T05:51:02.173Z,1006.6
2023-05-13T05:52:17.418Z,1006.6
2023-05-13T05:53:33.675Z,1006.6
2023-05-13T05:54:49.897Z,1006.6
2023-05-13T05:56:06.137Z,1006.6
2023-05-13T05:57:22.391Z,1006.6
2023-05-13T05:58:38.631Z,1006.6
2023-05-13T05:59:54.874Z,1006.6
2023-05-13T06:01:11.111Z,1006.6
2023-05-13T06:02:27.335Z,1006.6
2023-05-13T06:03:43.590Z,1006.6
2023-05-13T06:04:59.812Z,1006.6
2023-05-13T06:06:16.057Z,1006.6
2023-05-13T06:07:32.310Z,1006.6
2023-05-13T06:08:47.561Z,1006.6
2023-05-13T06:10:03.808Z,1006.6
2023-05-13T06:11:20.039Z,1006.6
2023-05-13T06:12:36.282Z,1006.6
2023-05-13T06:13:52.525Z,1006.6
2023-05-13T06:15:08.747Z,1006.5
2023-05-13T06:16:24.995Z,1006.5
2023-05-13T06:17:41.231Z,1006.5
2023-05-13T06:18:57.469Z,1006.5
2023-05-13T06:20:13.715Z,1006.5
2023-05-13T06:21:29.948Z,1006.6
2023-05-13T06:22:46.205Z,1006.6
2023-05-13T06:24:02.425Z,1006.6
2023-05-13T06:25:17.693Z,1006.6
2023-05-13T06:26:33.935Z,1006.6
2023-05-13T06:27:50.170Z,1006.6
2023-05-13T06:29:06.418Z,1006.6
2023-05-13T06:30:22.649Z,1006.6
2023-05-13T06:31:38.884Z,1006.6
2023-05-13T06:32:55.137Z,1006.6
2023-05-13T06:34:11.366Z,1006.6
2023-05-13T06:35:27.614Z,1006.6
2023-05-13T06:36:43.840Z,1006.7
2023-05-13T06:38:00.078Z,1006.7
2023-05-13T06:39:16.333Z,1006.6
2023-05-13T06:40:32.586Z,1006.7
2023-05-13T06:41:47.845Z,1006.6
2023-05-13T06:43:04.072Z,1006.6
2023-05-13T06:44:20.312Z,1006.6
2023-05-13T06:45:36.552Z,1006.6
2023-05-13T06:46:52.792Z,1006.6
2023-05-13T06:48:09.015Z,1006.6
2023-05-13T06:49:25.270Z,1006.7
2023-05-13T06:50:41.492Z,1006.6
2023-05-13T06:51:57.741Z,1006.6
2023-05-13T06:53:13.984Z,1006.6
2023-05-13T06:54:30.230Z,1006.6
2023-05-13T06:55:46.454Z,1006.6
2023-05-13T06:57:02.690Z,1006.7
2023-05-13T06:58:17.965Z,1006.7
2023-05-13T06:59:34.189Z,1006.6
2023-05-13T07:00:50.435Z,1006.6
2023-05-13T07:02:06.681Z,1006.6
2023-05-13T07:03:22.910Z,1006.6
2023-05-13T07:04:39.146Z,1006.6
2023-05-13T07:05:55.398Z,1006.6
2023-05-13T07:07:11.629Z,1006.6
2023-05-13T07:08:27.867Z,1006.6
2023-05-13T07:09:44.115Z,1006.6
2023-05-13T07:11:00.343Z,1006.6
2023-05-13T07:12:16.583Z,1006.5
2023-05-13T07:13:32.841Z,1006.5
2023-05-13T07:14:48.094Z,1006.5
2023-05-13T07:16:04.331Z,1006.5
2023-05-13T07:17:20.565Z,1006.6
2023-05-13T07:18:36.802Z,1006.5
2023-05-13T07:19:53.049Z,1006.5
2023-05-13T07:21:09.288Z,1006.5
2023-05-13T07:22:25.536Z,1006.5
2023-05-13T07:23:41.755Z,1006.5
2023-05-13T07:24:57.996Z,1006.5
2023-05-13T07:26:14.239Z,1006.5
2023-05-13T07:27:30.492Z,1006.5
2023-05-13T07:28:46.735Z,1006.4
2023-05-13T07:30:02.973Z,1006.4
2023-05-13T07:31:18.222Z,1006.4
2023-05-13T07:32:34.451Z,1006.4
2023-05-13T07:33:50.706Z,1006.4
2023-05-13T07:35:06.932Z,1006.4
2023-05-13T07:36:23.175Z,1006.5
2023-05-13T07:37:39.418Z,1006.5
2023-05-13T07:38:55.657Z,1006.4
2023-05-13T07:40:11.892Z,1006.4
2023-05-13T07:41:28.138Z,1006.5
2023-05-13T07:44:00.610Z,1006.5
2023-05-13T07:45:16.865Z,1006.5
2023-05-13T07:46:33.095Z,1006.4
2023-05-13T07:47:48.349Z,1006.4
2023-05-13T07:49:04.601Z,1006.5
2023-05-13T07:50:20.834Z,1006.5
2023-05-13T07:51:37.080Z,1006.4
2023-05-13T07:52:53.302Z,1006.5
2023-05-13T07:54:09.549Z,1006.5
2023-05-13T07:55:25.783Z,1006.4
2023-05-13T07:56:42.026Z,1006.4
2023-05-13T07:57:58.279Z,1006.4
2023-05-13T07:59:14.520Z,1006.4
2023-05-13T08:00:30.767Z,1006.4
2023-05-13T08:01:46.981Z,1006.4
2023-05-13T08:03:03.232Z,1006.4
2023-05-13T08:04:18.481Z,1006.4
2023-05-13T08:05:34.747Z,1006.4
2023-05-13T08:06:50.954Z,1006.5
2023-05-13T08:08:07.200Z,1006.4
2023-05-13T08:09:23.444Z,1006.4
2023-05-13T08:10:39.693Z,1006.4
2023-05-13T08:11:55.933Z,1006.4
2023-05-13T08:13:12.170Z,1006.5
2023-05-13T08:14:28.411Z,1006.5
2023-05-13T08:15:44.636Z,1006.4
2023-05-13T08:17:00.885Z,1006.4
2023-05-13T08:18:17.114Z,1006.4
2023-05-13T08:19:33.356Z,1006.4
2023-05-13T08:20:48.608Z,1006.4
2023-05-13T08:22:04.856Z,1006.4
2023-05-13T08:23:21.090Z,1006.4
2023-05-13T08:24:37.337Z,1006.4
2023-05-13T08:25:53.571Z,1006.3
2023-05-13T08:27:09.809Z,1006.4
2023-05-13T08:28:26.050Z,1006.4
2023-05-13T08:29:42.303Z,1006.4
2023-05-13T08:30:58.537Z,1006.4
2023-05-13T08:32:14.765Z,1006.4
2023-05-13T08:33:31.022Z,1006.4
2023-05-13T08:34:47.247Z,1006.3
2023-05-13T08:36:03.495Z,1006.4
2023-05-13T08:37:18.748Z,1006.4
2023-05-13T08:38:34.987Z,1006.4
2023-05-13T08:39:51.219Z,1006.4
2023-05-13T08:41:07.472Z,1006.4
2023-05-13T08:42:23.707Z,1006.4
2023-05-13T08:43:39.940Z,1006.4
2023-05-13T08:44:56.186Z,1006.4
2023-05-13T08:46:12.424Z,1006.4
2023-05-13T08:47:28.661Z,1006.4
2023-05-13T08:48:44.897Z,1006.3
2023-05-13T08:50:01.144Z,1006.3
2023-05-13T08:51:17.382Z,1006.4
2023-05-13T08:52:33.630Z,1006.4
2023-05-13T08:53:48.876Z,1006.3
2023-05-13T08:55:05.126Z,1006.3
2023-05-13T08:56:21.365Z,1006.4
2023-05-13T08:57:37.601Z,1006.3
2023-05-13T08:58:53.846Z,1006.3
2023-05-13T09:00:10.070Z,1006.3
2023-05-13T09:01:26.309Z,1006.3
2023-05-13T09:02:42.557Z,1006.3
2023-05-13T09:03:58.801Z,1006.3
2023-05-13T09:05:15.037Z,1006.3
2023-05-13T09:06:31.283Z,1006.3
2023-05-13T09:07:47.510Z,1006.3
2023-05-13T09:09:03.758Z,1006.3
2023-05-13T09:10:19.021Z,1006.3
2023-05-13T09:11:35.263Z,1006.3
2023-05-13T09:12:51.495Z,1006.4
2023-05-13T09:14:07.737Z,1006.3
2023-05-13T09:15:23.973Z,1006.4
2023-05-13T09:16:40.202Z,1006.3
2023-05-13T09:17:55.480Z,1006.3
2023-05-13T09:19:11.703Z,1006.3
2023-05-13T09:20:27.957Z,1006.3
2023-05-13T09:21:44.183Z,1006.3
2023-05-13T09:23:00.441Z,1006.3
2023-05-13T09:24:16.681Z,1006.3
2023-05-13T09:25:32.920Z,1006.3
2023-05-13T09:26:49.170Z,1006.3
2023-05-13T09:28:05.388Z,1006.2
2023-05-13T09:29:21.636Z,1006.3
2023-05-13T09:30:37.869Z,1006.3
2023-05-13T09:31:54.113Z,1006.3
2023-05-13T09:33:10.346Z,1006.3
2023-05-13T09:34:25.610Z,1006.3
2023-05-13T09:35:41.845Z,1006.3
2023-05-13T09:36:58.079Z,1006.3
2023-05-13T09:38:14.328Z,1006.2
2023-05-13T09:39:30.576Z,1006.2
2023-05-13T09:40:46.795Z,1006.2
2023-05-13T09:42:03.044Z,1006.3
2023-05-13T09:43:19.297Z,1006.2
2023-05-13T09:44:35.520Z,1006.2
2023-05-13T09:45:51.768Z,1006.2
2023-05-13T09:47:08.005Z,1006.2
2023-05-13T09:48:24.239Z,1006.2
2023-05-13T09:49:40.487Z,1006.2
2023-05-13T09:50:55.741Z,1006.1
2023-05-13T09:52:11.978Z,1006.1
2023-05-13T09:53:28.214Z,1006.2
2023-05-13T09:54:44.467Z,1006.2
2023-05-13T09:56:00.700Z,1006.2
2023-05-13T09:57:16.947Z,1006.2
2023-05-13T09:58:33.171Z,1006.2
2023-05-13T09:59:49.414Z,1006.2
2023-05-13T10:01:05.649Z,1006.2
2023-05-13T10:02:21.895Z,1006.2
2023-05-13T10:03:38.143Z,1006.1
2023-05-13T10:04:54.377Z,1006.1
2023-05-13T10:06:10.619Z,1006.2
2023-05-13T10:07:25.866Z,1006.1
2023-05-13T10:08:42.000Z,1006.1
2023-05-13T10:09:58.352Z,1006.2
2023-05-13T10:11:14.585Z,1006.2
2023-05-13T10:12:30.836Z,1006.1
2023-05-13T10:13:47.075Z,1006.1
2023-05-13T10:15:03.301Z,1006.1
2023-05-13T10:16:19.552Z,1006.1
2023-05-13T10:17:35.785Z,1006.2
2023-05-13T10:18:52.029Z,1006.1
2023-05-13T10:20:08.271Z,1006.1
2023-05-13T10:21:24.517Z,1006.1
2023-05-13T10:22:40.758Z,1006.1
2023-05-13T10:23:55.996Z,1006.1
2023-05-13T10:25:12.245Z,1006.1
2023-05-13T10:26:28.479Z,1006.1
2023-05-13T10:27:44.718Z,1006.1
2023-05-13T10:29:00.975Z,1006
2023-05-13T10:30:17.197Z,1006
2023-05-13T10:31:33.447Z,1006
2023-05-13T10:32:49.689Z,1006
2023-05-13T10:34:05.932Z,1006
2023-05-13T10:35:22.157Z,1006
2023-05-13T10:36:38.410Z,1006.1
2023-05-13T10:37:54.633Z,1006
2023-05-13T10:39:10.881Z,1006
2023-05-13T10:40:26.141Z,1006
2023-05-13T10:41:42.371Z,1006
2023-05-13T10:42:58.622Z,1006
2023-05-13T10:44:14.862Z,1006.1
2023-05-13T10:45:31.112Z,1006
2023-05-13T10:46:47.331Z,1006
2023-05-13T10:48:03.584Z,1006
2023-05-13T10:49:19.808Z,1006
2023-05-13T10:50:36.066Z,1006
2023-05-13T10:51:52.304Z,1006
2023-05-13T10:53:08.545Z,1006
2023-05-13T10:54:24.784Z,1006
2023-05-13T10:55:41.027Z,1006
2023-05-13T10:56:56.266Z,1006
2023-05-13T10:58:12.505Z,1006
2023-05-13T10:59:28.751Z,1006
2023-05-13T11:00:44.986Z,1006
2023-05-13T11:02:01.222Z,1006
2023-05-13T11:03:17.472Z,1006
2023-05-13T11:04:33.721Z,1006
2023-05-13T11:05:49.942Z,1005.9
2023-05-13T11:07:06.190Z,1006
2023-05-13T11:08:22.435Z,1006.1
2023-05-13T11:09:38.677Z,1006.1
2023-05-13T11:10:54.910Z,1006
2023-05-13T11:12:11.140Z,1006
2023-05-13T11:13:26.396Z,1006
2023-05-13T11:14:42.657Z,1006
2023-05-13T11:15:58.873Z,1006
2023-05-13T11:17:15.126Z,1006.1
2023-05-13T11:18:31.354Z,1006
2023-05-13T11:19:47.602Z,1006
2023-05-13T11:21:03.840Z,1006.1
2023-05-13T11:22:20.090Z,1006.1
2023-05-13T11:23:36.330Z,1006.1
2023-05-13T11:24:52.553Z,1006.1
2023-05-13T11:26:08.801Z,1006.1
2023-05-13T11:27:25.047Z,1006.1
2023-05-13T11:28:41.284Z,1006
2023-05-13T11:29:56.544Z,1006
2023-05-13T11:31:12.787Z,1006.1
2023-05-13T11:32:29.019Z,1006
2023-05-13T11:33:45.254Z,1006
2023-05-13T11:35:01.505Z,1006
2023-05-13T11:36:17.730Z,1006
2023-05-13T11:37:33.970Z,1006
2023-05-13T11:38:50.207Z,1005.9
2023-05-13T11:40:06.445Z,1005.9
2023-05-13T11:41:22.699Z,1005.9
2023-05-13T11:42:38.937Z,1006
2023-05-13T11:43:55.172Z,1005.9
2023-05-13T11:45:11.423Z,1006
2023-05-13T11:46:26.667Z,1005.8
2023-05-13T11:47:42.905Z,1005.9
2023-05-13T11:48:59.153Z,1005.9
2023-05-13T11:50:15.397Z,1005.9
2023-05-13T11:51:31.636Z,1005.9
2023-05-13T11:52:47.868Z,1005.8
2023-05-13T11:54:04.108Z,1005.9
2023-05-13T11:55:20.355Z,1005.9
2023-05-13T11:56:36.586Z,1005.9
2023-05-13T11:57:52.834Z,1005.9
2023-05-13T11:59:09.072Z,1005.9
2023-05-13T12:00:25.317Z,1005.9
2023-05-13T12:01:41.540Z,1006
2023-05-13T12:02:56.805Z,1005.9
2023-05-13T12:04:13.039Z,1006
2023-05-13T12:05:29.281Z,1005.9
2023-05-13T12:06:45.524Z,1006
2023-05-13T12:08:01.760Z,1006
2023-05-13T12:09:17.997Z,1005.9
2023-05-13T12:10:34.236Z,1005.8
2023-05-13T12:11:50.477Z,1005.8
2023-05-13T12:13:06.730Z,1005.9
2023-05-13T12:14:22.967Z,1006
2023-05-13T12:15:39.210Z,1005.9
2023-05-13T12:16:55.435Z,1005.8
2023-05-13T12:18:11.677Z,1005.9
2023-05-13T12:19:26.940Z,1005.8
2023-05-13T12:20:43.185Z,1005.9
2023-05-13T12:21:59.419Z,1005.9
2023-05-13T12:23:15.662Z,1006
2023-05-13T12:24:31.904Z,1005.9
2023-05-13T12:25:48.130Z,1005.9
2023-05-13T12:27:04.383Z,1005.8
2023-05-13T12:28:20.619Z,1005.8
2023-05-13T12:29:36.000Z,1005.9
2023-05-13T12:30:53.087Z,1005.9
2023-05-13T12:32:09.336Z,1005.9
2023-05-13T12:33:25.578Z,1005.9
2023-05-13T12:34:41.811Z,1005.9
2023-05-13T12:35:57.077Z,1006
2023-05-13T12:37:13.306Z,1006
2023-05-13T12:38:29.559Z,1006
2023-05-13T12:39:45.799Z,1006
2023-05-13T12:41:02.033Z,1006
2023-05-13T12:42:18.264Z,1005.9
2023-05-13T12:43:34.520Z,1006.1
2023-05-13T12:44:50.746Z,1006.1
2023-05-13T12:46:06.984Z,1006.1
2023-05-13T12:47:23.225Z,1006.1
2023-05-13T12:48:39.473Z,1006.1
2023-05-13T12:49:55.702Z,1006.1
2023-05-13T12:51:11.937Z,1006
2023-05-13T12:52:27.197Z,1006.1
2023-05-13T12:53:43.436Z,1006.1
2023-05-13T12:54:59.678Z,1006.1
2023-05-13T12:56:15.926Z,1006.1
2023-05-13T12:57:32.155Z,1006.3
2023-05-13T12:58:48.405Z,1006.1
2023-05-13T13:00:04.643Z,1006.1
2023-05-13T13:02:37.115Z,1006.1
2023-05-13T13:03:53.370Z,1006.2
2023-05-13T13:05:09.595Z,1006.2
2023-05-13T13:06:25.838Z,1006.1
2023-05-13T13:07:42.090Z,1006.1
2023-05-13T13:08:57.337Z,1006
2023-05-13T13:10:13.565Z,1006.1
2023-05-13T13:11:29.824Z,1006.2
2023-05-13T13:12:46.046Z,1006.1
2023-05-13T13:14:02.301Z,1006.1
2023-05-13T13:15:18.534Z,1006.1
2023-05-13T13:16:34.773Z,1006.2
2023-05-13T13:17:51.003Z,1006.1
2023-05-13T13:19:07.250Z,1006.2
2023-05-13T13:20:23.486Z,1006.2
2023-05-13T13:21:39.733Z,1006.1
2023-05-13T13:22:55.965Z,1006.2
2023-05-13T13:24:12.216Z,1006.2
2023-05-13T13:25:27.466Z,1006
2023-05-13T13:26:43.706Z,1006
2023-05-13T13:27:59.947Z,1006.1
2023-05-13T13:29:16.185Z,1006.1
2023-05-13T13:30:32.423Z,1006.1
2023-05-13T13:31:48.662Z,1006.1
2023-05-13T13:33:03.920Z,1006.1
2023-05-13T13:34:20.160Z,1006.2
2023-05-13T13:35:36.416Z,1006.2
2023-05-13T13:36:52.645Z,1006.3
2023-05-13T13:38:08.895Z,1006.2
2023-05-13T13:39:25.138Z,1006.3
2023-05-13T13:40:41.393Z,1006.2
2023-05-13T13:41:57.603Z,1006.2
2023-05-13T13:43:13.844Z,1006.2
2023-05-13T13:44:30.101Z,1006.2
2023-05-13T13:45:46.334Z,1006.2
2023-05-13T13:47:02.568Z,1006.2
2023-05-13T13:48:18.826Z,1006.2
2023-05-13T13:49:34.053Z,1006.2
2023-05-13T13:50:50.311Z,1006.2
2023-05-13T13:52:06.543Z,1006.2
2023-05-13T13:53:22.770Z,1006.2
2023-05-13T13:54:39.013Z,1006.2
2023-05-13T13:55:55.252Z,1006.2
2023-05-13T13:57:11.491Z,1006.2
2023-05-13T13:58:27.744Z,1006.2
2023-05-13T13:59:43.975Z,1006.2
2023-05-13T14:01:00.210Z,1006.1
2023-05-13T14:02:16.461Z,1006.1
2023-05-13T14:03:32.688Z,1006.1
2023-05-13T14:04:48.936Z,1006.2
2023-05-13T14:06:04.194Z,1006.3
2023-05-13T14:07:20.427Z,1006.2
2023-05-13T14:08:36.680Z,1006.3
2023-05-13T14:09:52.903Z,1006.3
2023-05-13T14:11:09.149Z,1006.2
2023-05-13T14:12:25.393Z,1006.2
2023-05-13T14:13:41.623Z,1006.2
2023-05-13T14:14:57.881Z,1006.2
2023-05-13T14:17:30.356Z,1006.2
2023-05-13T14:18:46.586Z,1006.3
2023-05-13T14:20:02.820Z,1006.2
2023-05-13T14:21:19.059Z,1006.2
2023-05-13T14:22:34.332Z,1006.3
2023-05-13T14:23:50.554Z,1006.2
2023-05-13T14:26:23.059Z,1006.3
2023-05-13T14:27:39.294Z,1006.2
2023-05-13T14:28:55.526Z,1006.2
2023-05-13T14:30:11.771Z,1006.2
2023-05-13T14:31:28.004Z,1006.2
2023-05-13T14:32:44.257Z,1006.2
2023-05-13T14:34:00.474Z,1006.3
2023-05-13T14:35:16.724Z,1006.2
2023-05-13T14:36:32.976Z,1006.2
2023-05-13T14:37:49.193Z,1006.2
2023-05-13T14:39:04.455Z,1006.3
2023-05-13T14:41:36.934Z,1006.3
2023-05-13T14:42:53.335Z,1006.3
2023-05-13T14:44:08.572Z,1006.3
2023-05-13T14:45:24.813Z,1006.2
2023-05-13T14:46:41.061Z,1006.3
2023-05-13T14:47:57.299Z,1006.2
2023-05-13T14:49:13.536Z,1006.2
2023-05-13T14:50:29.768Z,1006.2
2023-05-13T14:51:46.021Z,1006.2
2023-05-13T14:53:02.259Z,1006.2
2023-05-13T14:54:18.483Z,1006.3
2023-05-13T14:55:33.757Z,1006.2
2023-05-13T14:56:49.019Z,1006.2
2023-05-13T14:58:05.252Z,1006.2
2023-05-13T14:59:21.478Z,1006.3
2023-05-13T15:00:37.735Z,1006.2
2023-05-13T15:01:53.974Z,1006.2
2023-05-13T15:03:10.203Z,1006.2
2023-05-13T15:04:26.455Z,1006.2
2023-05-13T15:05:42.688Z,1006.2
2023-05-13T15:06:58.929Z,1006.2
2023-05-13T15:08:15.168Z,1006.2
2023-05-13T15:09:31.398Z,1006.2
2023-05-13T15:10:47.646Z,1006.3
2023-05-13T15:12:03.910Z,1006.2
2023-05-13T15:13:19.150Z,1006.2
2023-05-13T15:14:35.410Z,1006.2
2023-05-13T15:15:51.621Z,1006.2
2023-05-13T15:17:07.860Z,1006.2
2023-05-13T15:18:24.103Z,1006.2
2023-05-13T15:19:40.348Z,1006.2
2023-05-13T15:20:56.586Z,1006.2
2023-05-13T15:22:12.811Z,1006.3
2023-05-13T15:23:29.051Z,1006.2
2023-05-13T15:24:45.306Z,1006.3
2023-05-13T15:26:01.547Z,1006.2
2023-05-13T15:27:17.777Z,1006.3
2023-05-13T15:28:34.009Z,1006.3
2023-05-13T15:29:50.379Z,1006.2
2023-05-13T15:31:06.617Z,1006.3
2023-05-13T15:32:22.850Z,1006.3
2023-05-13T15:33:39.098Z,1006.3
2023-05-13T15:34:55.339Z,1006.2
2023-05-13T15:36:11.583Z,1006.2
2023-05-13T15:37:27.837Z,1006.3
2023-05-13T15:38:44.047Z,1006.3
2023-05-13T15:40:00.303Z,1006.3
2023-05-13T15:41:16.537Z,1006.3
2023-05-13T15:42:32.786Z,1006.3
2023-05-13T15:43:49.016Z,1006.3
2023-05-13T15:45:05.253Z,1006.4
2023-05-13T15:47:36.760Z,1006.3
2023-05-13T15:48:52.984Z,1006.3
2023-05-13T15:50:09.223Z,1006.3
2023-05-13T15:51:25.480Z,1006.3
2023-05-13T15:52:41.703Z,1006.3
2023-05-13T15:53:57.959Z,1006.3
2023-05-13T15:55:14.185Z,1006.2
2023-05-13T15:56:30.454Z,1006.4
2023-05-13T15:57:46.680Z,1006.3
2023-05-13T15:59:02.899Z,1006.2
2023-05-13T16:00:19.152Z,1006.2
2023-05-13T16:01:35.384Z,1006.3
2023-05-13T16:02:50.643Z,1006.2
2023-05-13T16:04:06.906Z,1006.2
2023-05-13T16:05:23.116Z,1006.3
2023-05-13T16:06:39.367Z,1006.2
2023-05-13T16:07:55.610Z,1006.2
2023-05-13T16:09:11.861Z,1006.2